sensor_id;sensor_type;location;lat;lon;timestamp;temperature;humidity
69084;SHT31;56185;48.526;9.044;2023-01-01T00:01:19;9.44;86.49
69084;SHT31;56185;48.526;9.044;2023-01-01T00:03:48;9.42;86.75
69084;SHT31;56185;48.526;9.044;2023-01-01T00:06:14;9.22;87.28
69084;SHT31;56185;48.526;9.044;2023-01-01T00:08:39;9.26;87.10
69084;SHT31;56185;48.526;9.044;2023-01-01T00:11:06;9.29;87.06
69084;SHT31;56185;48.526;9.044;2023-01-01T00:13:33;9.19;87.27
69084;SHT31;56185;48.526;9.044;2023-01-01T00:18:29;9.29;87.03
69084;SHT31;56185;48.526;9.044;2023-01-01T00:21:09;9.28;87.04
69084;SHT31;56185;48.526;9.044;2023-01-01T00:23:35;9.31;87.22
69084;SHT31;56185;48.526;9.044;2023-01-01T00:26:01;9.28;87.30
69084;SHT31;56185;48.526;9.044;2023-01-01T00:28:33;9.26;87.28
69084;SHT31;56185;48.526;9.044;2023-01-01T00:30:58;9.22;87.61
69084;SHT31;56185;48.526;9.044;2023-01-01T00:33:23;9.31;87.38
69084;SHT31;56185;48.526;9.044;2023-01-01T00:35:48;9.36;87.03
69084;SHT31;56185;48.526;9.044;2023-01-01T00:38:14;9.39;86.71
69084;SHT31;56185;48.526;9.044;2023-01-01T00:40:39;9.35;87.25
69084;SHT31;56185;48.526;9.044;2023-01-01T00:43:04;9.42;87.11
69084;SHT31;56185;48.526;9.044;2023-01-01T00:45:29;9.32;87.43
69084;SHT31;56185;48.526;9.044;2023-01-01T00:47:55;9.39;87.28
69084;SHT31;56185;48.526;9.044;2023-01-01T00:50:21;9.46;86.93
69084;SHT31;56185;48.526;9.044;2023-01-01T00:52:46;9.50;86.60
69084;SHT31;56185;48.526;9.044;2023-01-01T00:55:12;9.49;86.51
69084;SHT31;56185;48.526;9.044;2023-01-01T00:57:37;9.33;86.95
69084;SHT31;56185;48.526;9.044;2023-01-01T01:00:03;9.42;86.62
69084;SHT31;56185;48.526;9.044;2023-01-01T01:02:29;9.40;86.95
69084;SHT31;56185;48.526;9.044;2023-01-01T01:04:54;9.46;86.44
69084;SHT31;56185;48.526;9.044;2023-01-01T01:07:19;9.52;86.40
69084;SHT31;56185;48.526;9.044;2023-01-01T01:09:44;9.56;86.10
69084;SHT31;56185;48.526;9.044;2023-01-01T01:12:10;9.56;85.93
69084;SHT31;56185;48.526;9.044;2023-01-01T01:14:35;9.60;85.57
69084;SHT31;56185;48.526;9.044;2023-01-01T01:17:00;9.64;85.58
69084;SHT31;56185;48.526;9.044;2023-01-01T01:19:25;9.46;85.89
69084;SHT31;56185;48.526;9.044;2023-01-01T01:21:51;9.47;85.71
69084;SHT31;56185;48.526;9.044;2023-01-01T01:24:16;9.36;86.54
69084;SHT31;56185;48.526;9.044;2023-01-01T01:26:42;9.46;86.40
69084;SHT31;56185;48.526;9.044;2023-01-01T01:29:07;9.38;87.17
69084;SHT31;56185;48.526;9.044;2023-01-01T01:31:33;9.47;86.56
69084;SHT31;56185;48.526;9.044;2023-01-01T01:33:58;9.62;86.14
69084;SHT31;56185;48.526;9.044;2023-01-01T01:36:24;9.62;86.14
69084;SHT31;56185;48.526;9.044;2023-01-01T01:38:50;9.63;85.76
69084;SHT31;56185;48.526;9.044;2023-01-01T01:41:17;9.59;85.87
69084;SHT31;56185;48.526;9.044;2023-01-01T01:43:52;9.56;85.84
69084;SHT31;56185;48.526;9.044;2023-01-01T01:46:25;9.57;85.19
69084;SHT31;56185;48.526;9.044;2023-01-01T01:48:54;9.46;85.83
69084;SHT31;56185;48.526;9.044;2023-01-01T01:51:26;9.39;85.81
69084;SHT31;56185;48.526;9.044;2023-01-01T01:53:55;9.40;85.66
69084;SHT31;56185;48.526;9.044;2023-01-01T01:56:46;9.31;85.95
69084;SHT31;56185;48.526;9.044;2023-01-01T01:59:13;9.39;86.22
69084;SHT31;56185;48.526;9.044;2023-01-01T02:01:39;9.23;86.59
69084;SHT31;56185;48.526;9.044;2023-01-01T02:04:05;9.38;85.95
69084;SHT31;56185;48.526;9.044;2023-01-01T02:06:32;9.26;85.56
69084;SHT31;56185;48.526;9.044;2023-01-01T02:09:01;9.21;85.36
69084;SHT31;56185;48.526;9.044;2023-01-01T02:11:26;8.94;86.22
69084;SHT31;56185;48.526;9.044;2023-01-01T02:13:53;9.00;86.28
69084;SHT31;56185;48.526;9.044;2023-01-01T02:16:19;9.01;85.93
69084;SHT31;56185;48.526;9.044;2023-01-01T02:19:17;8.89;86.07
69084;SHT31;56185;48.526;9.044;2023-01-01T02:22:05;8.97;86.29
69084;SHT31;56185;48.526;9.044;2023-01-01T02:30:26;8.88;86.64
69084;SHT31;56185;48.526;9.044;2023-01-01T02:33:00;8.97;86.21
69084;SHT31;56185;48.526;9.044;2023-01-01T02:35:29;8.85;86.48
69084;SHT31;56185;48.526;9.044;2023-01-01T02:37:59;8.85;85.77
69084;SHT31;56185;48.526;9.044;2023-01-01T02:40:26;8.73;86.39
69084;SHT31;56185;48.526;9.044;2023-01-01T02:42:52;8.60;86.54
69084;SHT31;56185;48.526;9.044;2023-01-01T02:45:18;8.65;86.44
69084;SHT31;56185;48.526;9.044;2023-01-01T02:47:43;8.50;87.88
69084;SHT31;56185;48.526;9.044;2023-01-01T02:50:18;8.46;88.14
69084;SHT31;56185;48.526;9.044;2023-01-01T02:52:47;8.43;88.64
69084;SHT31;56185;48.526;9.044;2023-01-01T02:55:33;8.49;88.26
69084;SHT31;56185;48.526;9.044;2023-01-01T03:00:49;8.74;88.29
69084;SHT31;56185;48.526;9.044;2023-01-01T03:03:35;8.77;88.00
69084;SHT31;56185;48.526;9.044;2023-01-01T03:06:31;8.82;88.03
69084;SHT31;56185;48.526;9.044;2023-01-01T03:09:22;8.89;87.02
69084;SHT31;56185;48.526;9.044;2023-01-01T03:11:58;8.89;86.74
69084;SHT31;56185;48.526;9.044;2023-01-01T03:17:22;8.81;87.57
69084;SHT31;56185;48.526;9.044;2023-01-01T03:19:50;8.87;87.44
69084;SHT31;56185;48.526;9.044;2023-01-01T03:22:16;8.82;87.45
69084;SHT31;56185;48.526;9.044;2023-01-01T03:24:59;8.73;87.62
69084;SHT31;56185;48.526;9.044;2023-01-01T03:27:41;8.71;87.92
69084;SHT31;56185;48.526;9.044;2023-01-01T03:30:10;8.71;87.88
69084;SHT31;56185;48.526;9.044;2023-01-01T03:32:46;9.01;86.94
69084;SHT31;56185;48.526;9.044;2023-01-01T03:35:15;9.08;87.08
69084;SHT31;56185;48.526;9.044;2023-01-01T03:37:44;9.21;86.33
69084;SHT31;56185;48.526;9.044;2023-01-01T03:40:11;9.29;86.35
69084;SHT31;56185;48.526;9.044;2023-01-01T03:42:42;9.23;86.43
69084;SHT31;56185;48.526;9.044;2023-01-01T03:45:19;9.33;85.82
69084;SHT31;56185;48.526;9.044;2023-01-01T03:47:46;9.32;85.78
69084;SHT31;56185;48.526;9.044;2023-01-01T03:50:13;9.49;85.34
69084;SHT31;56185;48.526;9.044;2023-01-01T03:53:06;9.73;84.23
69084;SHT31;56185;48.526;9.044;2023-01-01T03:55:36;9.69;84.42
69084;SHT31;56185;48.526;9.044;2023-01-01T03:58:17;9.81;84.05
69084;SHT31;56185;48.526;9.044;2023-01-01T04:00:54;9.80;83.89
69084;SHT31;56185;48.526;9.044;2023-01-01T04:03:25;9.87;83.57
69084;SHT31;56185;48.526;9.044;2023-01-01T04:05:51;9.80;83.79
69084;SHT31;56185;48.526;9.044;2023-01-01T04:08:17;9.64;84.38
69084;SHT31;56185;48.526;9.044;2023-01-01T04:10:45;9.67;83.88
69084;SHT31;56185;48.526;9.044;2023-01-01T04:13:12;9.64;83.72
69084;SHT31;56185;48.526;9.044;2023-01-01T04:15:37;9.46;84.15
69084;SHT31;56185;48.526;9.044;2023-01-01T04:18:03;9.40;84.15
69084;SHT31;56185;48.526;9.044;2023-01-01T04:20:29;9.36;84.26
69084;SHT31;56185;48.526;9.044;2023-01-01T04:22:56;9.10;85.48
69084;SHT31;56185;48.526;9.044;2023-01-01T04:25:21;9.12;85.82
69084;SHT31;56185;48.526;9.044;2023-01-01T04:27:47;9.12;85.41
69084;SHT31;56185;48.526;9.044;2023-01-01T04:30:12;9.12;85.72
69084;SHT31;56185;48.526;9.044;2023-01-01T04:32:39;9.10;85.92
69084;SHT31;56185;48.526;9.044;2023-01-01T04:35:05;9.11;85.67
69084;SHT31;56185;48.526;9.044;2023-01-01T04:37:31;9.16;85.30
69084;SHT31;56185;48.526;9.044;2023-01-01T04:39:58;9.15;85.36
69084;SHT31;56185;48.526;9.044;2023-01-01T04:42:24;9.16;85.45
69084;SHT31;56185;48.526;9.044;2023-01-01T04:44:49;9.11;85.65
69084;SHT31;56185;48.526;9.044;2023-01-01T04:47:14;9.16;85.58
69084;SHT31;56185;48.526;9.044;2023-01-01T04:49:39;9.08;85.98
69084;SHT31;56185;48.526;9.044;2023-01-01T04:52:05;9.07;85.65
69084;SHT31;56185;48.526;9.044;2023-01-01T04:54:30;9.31;85.17
69084;SHT31;56185;48.526;9.044;2023-01-01T04:56:55;9.21;85.07
69084;SHT31;56185;48.526;9.044;2023-01-01T04:59:20;9.04;85.76
69084;SHT31;56185;48.526;9.044;2023-01-01T05:01:46;9.10;85.36
69084;SHT31;56185;48.526;9.044;2023-01-01T05:04:12;9.01;86.22
69084;SHT31;56185;48.526;9.044;2023-01-01T05:06:38;8.97;86.34
69084;SHT31;56185;48.526;9.044;2023-01-01T05:09:03;9.02;86.41
69084;SHT31;56185;48.526;9.044;2023-01-01T05:11:29;9.18;85.99
69084;SHT31;56185;48.526;9.044;2023-01-01T05:13:57;9.07;86.22
69084;SHT31;56185;48.526;9.044;2023-01-01T05:16:27;9.23;85.43
69084;SHT31;56185;48.526;9.044;2023-01-01T05:18:53;9.32;85.02
69084;SHT31;56185;48.526;9.044;2023-01-01T05:21:21;9.54;84.10
69084;SHT31;56185;48.526;9.044;2023-01-01T05:23:47;9.46;84.59
69084;SHT31;56185;48.526;9.044;2023-01-01T05:26:18;9.52;84.30
69084;SHT31;56185;48.526;9.044;2023-01-01T05:28:43;9.44;84.41
69084;SHT31;56185;48.526;9.044;2023-01-01T05:31:14;9.42;84.76
69084;SHT31;56185;48.526;9.044;2023-01-01T05:33:40;9.26;85.10
69084;SHT31;56185;48.526;9.044;2023-01-01T05:36:14;9.28;85.15
69084;SHT31;56185;48.526;9.044;2023-01-01T05:38:40;9.31;84.60
69084;SHT31;56185;48.526;9.044;2023-01-01T05:41:06;9.23;84.83
69084;SHT31;56185;48.526;9.044;2023-01-01T05:43:31;8.97;86.19
69084;SHT31;56185;48.526;9.044;2023-01-01T05:46:01;9.16;85.11
69084;SHT31;56185;48.526;9.044;2023-01-01T05:48:26;8.92;86.16
69084;SHT31;56185;48.526;9.044;2023-01-01T05:50:51;8.85;86.39
69084;SHT31;56185;48.526;9.044;2023-01-01T05:53:17;8.94;85.97
69084;SHT31;56185;48.526;9.044;2023-01-01T05:55:42;8.89;85.97
69084;SHT31;56185;48.526;9.044;2023-01-01T05:58:07;8.87;86.17
69084;SHT31;56185;48.526;9.044;2023-01-01T06:00:32;8.82;86.35
69084;SHT31;56185;48.526;9.044;2023-01-01T06:02:57;8.88;85.82
69084;SHT31;56185;48.526;9.044;2023-01-01T06:05:23;8.68;86.64
69084;SHT31;56185;48.526;9.044;2023-01-01T06:07:48;8.75;86.40
69084;SHT31;56185;48.526;9.044;2023-01-01T06:10:13;8.65;86.95
69084;SHT31;56185;48.526;9.044;2023-01-01T06:12:38;8.64;86.63
69084;SHT31;56185;48.526;9.044;2023-01-01T06:15:04;8.88;85.92
69084;SHT31;56185;48.526;9.044;2023-01-01T06:17:29;8.67;85.81
69084;SHT31;56185;48.526;9.044;2023-01-01T06:19:57;8.57;85.29
69084;SHT31;56185;48.526;9.044;2023-01-01T06:22:22;8.59;85.27
69084;SHT31;56185;48.526;9.044;2023-01-01T06:24:47;8.43;86.05
69084;SHT31;56185;48.526;9.044;2023-01-01T06:27:12;8.42;86.09
69084;SHT31;56185;48.526;9.044;2023-01-01T06:29:37;8.32;86.59
69084;SHT31;56185;48.526;9.044;2023-01-01T06:32:03;8.23;87.45
69084;SHT31;56185;48.526;9.044;2023-01-01T06:34:28;8.30;87.41
69084;SHT31;56185;48.526;9.044;2023-01-01T06:36:53;8.39;87.16
69084;SHT31;56185;48.526;9.044;2023-01-01T06:39:19;8.39;86.68
69084;SHT31;56185;48.526;9.044;2023-01-01T06:41:44;8.30;87.12
69084;SHT31;56185;48.526;9.044;2023-01-01T06:44:09;8.28;86.84
69084;SHT31;56185;48.526;9.044;2023-01-01T06:46:35;8.17;87.39
69084;SHT31;56185;48.526;9.044;2023-01-01T06:49:02;8.25;86.91
69084;SHT31;56185;48.526;9.044;2023-01-01T06:51:30;8.26;86.59
69084;SHT31;56185;48.526;9.044;2023-01-01T06:54:00;8.09;86.49
69084;SHT31;56185;48.526;9.044;2023-01-01T06:56:26;8.17;87.02
69084;SHT31;56185;48.526;9.044;2023-01-01T06:58:52;8.12;86.50
69084;SHT31;56185;48.526;9.044;2023-01-01T07:01:19;7.91;86.83
69084;SHT31;56185;48.526;9.044;2023-01-01T07:03:56;7.82;86.71
69084;SHT31;56185;48.526;9.044;2023-01-01T07:06:23;7.91;86.80
69084;SHT31;56185;48.526;9.044;2023-01-01T07:08:48;7.68;87.21
69084;SHT31;56185;48.526;9.044;2023-01-01T07:11:14;7.72;86.62
69084;SHT31;56185;48.526;9.044;2023-01-01T07:13:39;7.70;87.14
69084;SHT31;56185;48.526;9.044;2023-01-01T07:16:05;7.71;87.40
69084;SHT31;56185;48.526;9.044;2023-01-01T07:18:31;7.64;87.96
69084;SHT31;56185;48.526;9.044;2023-01-01T07:21:01;7.75;87.62
69084;SHT31;56185;48.526;9.044;2023-01-01T07:23:28;7.75;87.82
69084;SHT31;56185;48.526;9.044;2023-01-01T07:25:54;7.71;87.88
69084;SHT31;56185;48.526;9.044;2023-01-01T07:28:20;7.75;87.68
69084;SHT31;56185;48.526;9.044;2023-01-01T07:30:46;7.79;87.54
69084;SHT31;56185;48.526;9.044;2023-01-01T07:33:13;7.85;87.50
69084;SHT31;56185;48.526;9.044;2023-01-01T07:35:39;7.84;88.03
69084;SHT31;56185;48.526;9.044;2023-01-01T07:38:04;7.89;87.39
69084;SHT31;56185;48.526;9.044;2023-01-01T07:40:29;7.88;87.54
69084;SHT31;56185;48.526;9.044;2023-01-01T07:42:55;7.86;87.56
69084;SHT31;56185;48.526;9.044;2023-01-01T07:45:20;7.89;87.52
69084;SHT31;56185;48.526;9.044;2023-01-01T07:47:49;7.98;87.40
69084;SHT31;56185;48.526;9.044;2023-01-01T07:50:16;8.13;86.96
69084;SHT31;56185;48.526;9.044;2023-01-01T07:52:42;7.93;86.84
69084;SHT31;56185;48.526;9.044;2023-01-01T07:55:11;7.91;87.21
69084;SHT31;56185;48.526;9.044;2023-01-01T07:57:37;7.88;86.92
69084;SHT31;56185;48.526;9.044;2023-01-01T08:00:02;7.96;86.74
69084;SHT31;56185;48.526;9.044;2023-01-01T08:02:28;7.92;86.89
69084;SHT31;56185;48.526;9.044;2023-01-01T08:04:53;7.89;87.30
69084;SHT31;56185;48.526;9.044;2023-01-01T08:07:18;7.92;87.36
69084;SHT31;56185;48.526;9.044;2023-01-01T08:09:43;7.99;87.41
69084;SHT31;56185;48.526;9.044;2023-01-01T08:12:09;7.98;86.79
69084;SHT31;56185;48.526;9.044;2023-01-01T08:14:34;7.93;86.69
69084;SHT31;56185;48.526;9.044;2023-01-01T08:16:59;7.96;86.24
69084;SHT31;56185;48.526;9.044;2023-01-01T08:19:24;7.99;86.16
69084;SHT31;56185;48.526;9.044;2023-01-01T08:21:49;8.05;85.62
69084;SHT31;56185;48.526;9.044;2023-01-01T08:24:15;8.12;85.06
69084;SHT31;56185;48.526;9.044;2023-01-01T08:26:40;7.99;85.29
69084;SHT31;56185;48.526;9.044;2023-01-01T08:29:06;8.02;85.66
69084;SHT31;56185;48.526;9.044;2023-01-01T08:31:32;7.99;85.37
69084;SHT31;56185;48.526;9.044;2023-01-01T08:33:57;7.96;84.95
69084;SHT31;56185;48.526;9.044;2023-01-01T08:36:23;7.93;85.36
69084;SHT31;56185;48.526;9.044;2023-01-01T08:38:49;7.81;84.06
69084;SHT31;56185;48.526;9.044;2023-01-01T08:41:14;7.82;84.19
69084;SHT31;56185;48.526;9.044;2023-01-01T08:43:39;7.68;84.13
69084;SHT31;56185;48.526;9.044;2023-01-01T08:46:04;7.68;84.73
69084;SHT31;56185;48.526;9.044;2023-01-01T08:48:30;7.70;84.22
69084;SHT31;56185;48.526;9.044;2023-01-01T08:50:57;7.92;84.89
69084;SHT31;56185;48.526;9.044;2023-01-01T08:53:22;8.10;85.03
69084;SHT31;56185;48.526;9.044;2023-01-01T08:56:02;8.22;84.78
69084;SHT31;56185;48.526;9.044;2023-01-01T08:58:27;8.32;84.86
69084;SHT31;56185;48.526;9.044;2023-01-01T09:00:53;8.39;84.99
69084;SHT31;56185;48.526;9.044;2023-01-01T09:03:18;8.32;85.08
69084;SHT31;56185;48.526;9.044;2023-01-01T09:05:44;8.47;83.86
69084;SHT31;56185;48.526;9.044;2023-01-01T09:08:13;8.33;83.67
69084;SHT31;56185;48.526;9.044;2023-01-01T09:10:38;8.34;83.35
69084;SHT31;56185;48.526;9.044;2023-01-01T09:13:03;8.47;82.41
69084;SHT31;56185;48.526;9.044;2023-01-01T09:15:28;8.33;83.00
69084;SHT31;56185;48.526;9.044;2023-01-01T09:17:54;8.34;82.78
69084;SHT31;56185;48.526;9.044;2023-01-01T09:20:19;8.33;82.62
69084;SHT31;56185;48.526;9.044;2023-01-01T09:22:44;8.52;82.62
69084;SHT31;56185;48.526;9.044;2023-01-01T09:25:09;8.53;82.57
69084;SHT31;56185;48.526;9.044;2023-01-01T09:27:35;8.60;82.37
69084;SHT31;56185;48.526;9.044;2023-01-01T09:30:00;8.64;82.88
69084;SHT31;56185;48.526;9.044;2023-01-01T09:32:25;8.88;82.83
69084;SHT31;56185;48.526;9.044;2023-01-01T09:34:50;8.94;82.88
69084;SHT31;56185;48.526;9.044;2023-01-01T09:37:16;8.89;83.13
69084;SHT31;56185;48.526;9.044;2023-01-01T09:39:41;8.94;83.46
69084;SHT31;56185;48.526;9.044;2023-01-01T09:42:18;9.08;82.69
69084;SHT31;56185;48.526;9.044;2023-01-01T09:50:15;9.39;82.32
69084;SHT31;56185;48.526;9.044;2023-01-01T09:52:53;9.52;82.64
69084;SHT31;56185;48.526;9.044;2023-01-01T09:55:28;9.76;81.67
69084;SHT31;56185;48.526;9.044;2023-01-01T09:57:55;9.91;81.42
69084;SHT31;56185;48.526;9.044;2023-01-01T10:00:21;10.11;80.36
69084;SHT31;56185;48.526;9.044;2023-01-01T10:08:51;10.38;80.38
69084;SHT31;56185;48.526;9.044;2023-01-01T10:14:31;10.51;79.57
69084;SHT31;56185;48.526;9.044;2023-01-01T10:16:58;10.39;80.39
69084;SHT31;56185;48.526;9.044;2023-01-01T10:19:35;10.55;80.86
69084;SHT31;56185;48.526;9.044;2023-01-01T10:22:18;10.69;79.96
69084;SHT31;56185;48.526;9.044;2023-01-01T10:24:49;10.79;79.92
69084;SHT31;56185;48.526;9.044;2023-01-01T10:27:27;10.96;79.99
69084;SHT31;56185;48.526;9.044;2023-01-01T10:29:54;11.07;79.87
69084;SHT31;56185;48.526;9.044;2023-01-01T10:32:35;11.19;79.46
69084;SHT31;56185;48.526;9.044;2023-01-01T10:35:02;11.34;79.86
69084;SHT31;56185;48.526;9.044;2023-01-01T10:37:35;11.35;79.74
69084;SHT31;56185;48.526;9.044;2023-01-01T10:40:26;11.54;79.17
69084;SHT31;56185;48.526;9.044;2023-01-01T10:42:52;11.58;78.74
69084;SHT31;56185;48.526;9.044;2023-01-01T10:45:37;11.67;79.31
69084;SHT31;56185;48.526;9.044;2023-01-01T10:51:01;11.81;79.35
69084;SHT31;56185;48.526;9.044;2023-01-01T10:56:18;12.10;78.79
69084;SHT31;56185;48.526;9.044;2023-01-01T10:58:46;12.26;78.39
69084;SHT31;56185;48.526;9.044;2023-01-01T11:01:20;12.36;78.19
69084;SHT31;56185;48.526;9.044;2023-01-01T11:03:59;12.47;77.90
69084;SHT31;56185;48.526;9.044;2023-01-01T11:08:52;12.65;77.06
69084;SHT31;56185;48.526;9.044;2023-01-01T11:11:40;12.68;76.36
69084;SHT31;56185;48.526;9.044;2023-01-01T11:14:18;12.73;77.17
69084;SHT31;56185;48.526;9.044;2023-01-01T11:16:44;12.85;75.43
69084;SHT31;56185;48.526;9.044;2023-01-01T11:19:19;12.77;75.02
69084;SHT31;56185;48.526;9.044;2023-01-01T11:21:46;12.84;74.85
69084;SHT31;56185;48.526;9.044;2023-01-01T11:24:19;12.84;74.90
69084;SHT31;56185;48.526;9.044;2023-01-01T11:26:45;12.95;74.33
69084;SHT31;56185;48.526;9.044;2023-01-01T11:29:28;13.05;74.80
69084;SHT31;56185;48.526;9.044;2023-01-01T11:31:55;13.16;74.47
69084;SHT31;56185;48.526;9.044;2023-01-01T11:36:49;13.29;73.90
69084;SHT31;56185;48.526;9.044;2023-01-01T11:39:23;13.40;74.16
69084;SHT31;56185;48.526;9.044;2023-01-01T11:41:51;13.57;73.31
69084;SHT31;56185;48.526;9.044;2023-01-01T11:44:42;13.70;73.03
69084;SHT31;56185;48.526;9.044;2023-01-01T11:47:28;13.78;72.76
69084;SHT31;56185;48.526;9.044;2023-01-01T11:49:58;13.81;73.43
69084;SHT31;56185;48.526;9.044;2023-01-01T11:52:39;14.00;72.56
69084;SHT31;56185;48.526;9.044;2023-01-01T12:00:33;14.14;72.67
69084;SHT31;56185;48.526;9.044;2023-01-01T12:03:40;14.22;72.10
69084;SHT31;56185;48.526;9.044;2023-01-01T12:06:10;14.45;71.79
69084;SHT31;56185;48.526;9.044;2023-01-01T12:08:38;14.45;71.51
69084;SHT31;56185;48.526;9.044;2023-01-01T12:11:24;14.51;70.92
69084;SHT31;56185;48.526;9.044;2023-01-01T12:13:55;14.62;70.02
69084;SHT31;56185;48.526;9.044;2023-01-01T12:16:51;14.75;71.15
69084;SHT31;56185;48.526;9.044;2023-01-01T12:19:21;14.86;69.68
69084;SHT31;56185;48.526;9.044;2023-01-01T12:21:49;14.99;68.82
69084;SHT31;56185;48.526;9.044;2023-01-01T12:24:15;14.97;68.57
69084;SHT31;56185;48.526;9.044;2023-01-01T12:27:06;15.03;68.61
69084;SHT31;56185;48.526;9.044;2023-01-01T12:29:52;15.20;69.02
69084;SHT31;56185;48.526;9.044;2023-01-01T12:32:26;15.30;67.79
69084;SHT31;56185;48.526;9.044;2023-01-01T12:46:30;15.43;68.97
69084;SHT31;56185;48.526;9.044;2023-01-01T12:49:27;15.43;68.08
69084;SHT31;56185;48.526;9.044;2023-01-01T12:57:31;15.75;67.50
69084;SHT31;56185;48.526;9.044;2023-01-01T12:59:59;15.78;67.38
69084;SHT31;56185;48.526;9.044;2023-01-01T13:02:27;15.79;66.35
69084;SHT31;56185;48.526;9.044;2023-01-01T13:05:00;15.82;66.88
69084;SHT31;56185;48.526;9.044;2023-01-01T13:07:35;15.89;65.74
69084;SHT31;56185;48.526;9.044;2023-01-01T13:10:08;15.91;65.62
69084;SHT31;56185;48.526;9.044;2023-01-01T13:12:35;16.02;64.83
69084;SHT31;56185;48.526;9.044;2023-01-01T13:15:33;16.01;63.70
69084;SHT31;56185;48.526;9.044;2023-01-01T13:17:58;16.03;60.98
69084;SHT31;56185;48.526;9.044;2023-01-01T13:20:24;16.05;60.91
69084;SHT31;56185;48.526;9.044;2023-01-01T13:22:49;16.17;62.12
69084;SHT31;56185;48.526;9.044;2023-01-01T13:33:29;16.32;63.78
69084;SHT31;56185;48.526;9.044;2023-01-01T13:38:53;16.20;63.89
69084;SHT31;56185;48.526;9.044;2023-01-01T13:43:51;16.14;63.74
69084;SHT31;56185;48.526;9.044;2023-01-01T13:46:18;16.12;62.14
69084;SHT31;56185;48.526;9.044;2023-01-01T13:48:52;16.14;63.16
69084;SHT31;56185;48.526;9.044;2023-01-01T13:54:46;16.24;63.39
69084;SHT31;56185;48.526;9.044;2023-01-01T14:00:54;16.23;63.97
69084;SHT31;56185;48.526;9.044;2023-01-01T14:03:26;16.12;65.37
69084;SHT31;56185;48.526;9.044;2023-01-01T14:05:57;16.12;64.57
69084;SHT31;56185;48.526;9.044;2023-01-01T14:08:34;16.09;64.05
69084;SHT31;56185;48.526;9.044;2023-01-01T14:11:01;16.09;63.01
69084;SHT31;56185;48.526;9.044;2023-01-01T14:13:28;16.09;63.23
69084;SHT31;56185;48.526;9.044;2023-01-01T14:15:54;16.02;63.49
69084;SHT31;56185;48.526;9.044;2023-01-01T14:18:24;16.06;62.65
69084;SHT31;56185;48.526;9.044;2023-01-01T14:20:55;16.01;61.40
69084;SHT31;56185;48.526;9.044;2023-01-01T14:23:32;15.88;63.74
69084;SHT31;56185;48.526;9.044;2023-01-01T14:26:06;15.92;62.67
69084;SHT31;56185;48.526;9.044;2023-01-01T14:28:33;16.01;62.78
69084;SHT31;56185;48.526;9.044;2023-01-01T14:31:02;16.01;62.24
69084;SHT31;56185;48.526;9.044;2023-01-01T14:33:29;15.92;63.77
69084;SHT31;56185;48.526;9.044;2023-01-01T14:35:59;16.01;62.14
69084;SHT31;56185;48.526;9.044;2023-01-01T14:38:35;15.95;63.37
69084;SHT31;56185;48.526;9.044;2023-01-01T14:41:29;15.69;65.03
69084;SHT31;56185;48.526;9.044;2023-01-01T14:44:02;15.72;65.48
69084;SHT31;56185;48.526;9.044;2023-01-01T14:46:28;15.59;66.26
69084;SHT31;56185;48.526;9.044;2023-01-01T14:49:02;15.52;66.54
69084;SHT31;56185;48.526;9.044;2023-01-01T14:51:32;15.44;67.50
69084;SHT31;56185;48.526;9.044;2023-01-01T14:53:58;15.45;67.29
69084;SHT31;56185;48.526;9.044;2023-01-01T14:56:33;15.40;68.01
69084;SHT31;56185;48.526;9.044;2023-01-01T15:01:36;15.17;68.81
69084;SHT31;56185;48.526;9.044;2023-01-01T15:04:03;14.99;69.75
69084;SHT31;56185;48.526;9.044;2023-01-01T15:06:29;15.07;70.10
69084;SHT31;56185;48.526;9.044;2023-01-01T15:08:55;14.86;70.59
69084;SHT31;56185;48.526;9.044;2023-01-01T15:11:21;14.92;70.49
69084;SHT31;56185;48.526;9.044;2023-01-01T15:14:00;14.92;70.61
69084;SHT31;56185;48.526;9.044;2023-01-01T15:16:27;14.73;70.84
69084;SHT31;56185;48.526;9.044;2023-01-01T15:18:53;14.54;72.39
69084;SHT31;56185;48.526;9.044;2023-01-01T15:24:01;14.32;71.97
69084;SHT31;56185;48.526;9.044;2023-01-01T15:28:55;14.17;72.43
69084;SHT31;56185;48.526;9.044;2023-01-01T15:31:20;13.91;73.32
69084;SHT31;56185;48.526;9.044;2023-01-01T15:33:47;13.91;73.28
69084;SHT31;56185;48.526;9.044;2023-01-01T15:36:12;13.94;72.41
69084;SHT31;56185;48.526;9.044;2023-01-01T15:38:38;13.90;72.31
69084;SHT31;56185;48.526;9.044;2023-01-01T15:41:22;13.59;72.67
69084;SHT31;56185;48.526;9.044;2023-01-01T15:43:48;13.57;72.83
69084;SHT31;56185;48.526;9.044;2023-01-01T15:46:19;13.56;72.84
69084;SHT31;56185;48.526;9.044;2023-01-01T15:48:47;13.57;72.49
69084;SHT31;56185;48.526;9.044;2023-01-01T15:51:15;13.56;72.85
69084;SHT31;56185;48.526;9.044;2023-01-01T15:53:57;13.42;73.13
69084;SHT31;56185;48.526;9.044;2023-01-01T15:56:26;13.49;72.92
69084;SHT31;56185;48.526;9.044;2023-01-01T15:59:01;13.55;71.89
69084;SHT31;56185;48.526;9.044;2023-01-01T16:01:31;13.30;73.23
69084;SHT31;56185;48.526;9.044;2023-01-01T16:04:17;13.15;73.67
69084;SHT31;56185;48.526;9.044;2023-01-01T16:06:48;13.15;73.28
69084;SHT31;56185;48.526;9.044;2023-01-01T16:09:15;13.05;73.22
69084;SHT31;56185;48.526;9.044;2023-01-01T16:11:41;12.97;73.43
69084;SHT31;56185;48.526;9.044;2023-01-01T16:14:07;13.15;72.55
69084;SHT31;56185;48.526;9.044;2023-01-01T16:16:32;13.04;72.80
69084;SHT31;56185;48.526;9.044;2023-01-01T16:18:58;12.97;72.85
69084;SHT31;56185;48.526;9.044;2023-01-01T16:21:26;13.04;72.74
69084;SHT31;56185;48.526;9.044;2023-01-01T16:23:53;12.88;73.00
69084;SHT31;56185;48.526;9.044;2023-01-01T16:26:19;12.94;73.08
69084;SHT31;56185;48.526;9.044;2023-01-01T16:28:44;12.57;74.30
69084;SHT31;56185;48.526;9.044;2023-01-01T16:31:14;12.51;73.77
69084;SHT31;56185;48.526;9.044;2023-01-01T16:33:40;12.69;73.16
69084;SHT31;56185;48.526;9.044;2023-01-01T16:36:05;12.73;73.34
69084;SHT31;56185;48.526;9.044;2023-01-01T16:38:30;12.67;72.96
69084;SHT31;56185;48.526;9.044;2023-01-01T16:40:56;12.41;73.29
69084;SHT31;56185;48.526;9.044;2023-01-01T16:43:21;12.30;74.18
69084;SHT31;56185;48.526;9.044;2023-01-01T16:45:46;12.26;73.94
69084;SHT31;56185;48.526;9.044;2023-01-01T16:48:12;12.22;74.34
69084;SHT31;56185;48.526;9.044;2023-01-01T16:50:37;12.32;73.79
69084;SHT31;56185;48.526;9.044;2023-01-01T16:53:02;12.32;74.02
69084;SHT31;56185;48.526;9.044;2023-01-01T16:55:27;12.30;73.97
69084;SHT31;56185;48.526;9.044;2023-01-01T16:57:53;12.44;73.92
69084;SHT31;56185;48.526;9.044;2023-01-01T17:00:18;12.33;74.24
69084;SHT31;56185;48.526;9.044;2023-01-01T17:02:43;12.25;74.48
69084;SHT31;56185;48.526;9.044;2023-01-01T17:05:09;12.10;74.69
69084;SHT31;56185;48.526;9.044;2023-01-01T17:07:34;12.12;75.10
69084;SHT31;56185;48.526;9.044;2023-01-01T17:10:00;12.12;74.53
69084;SHT31;56185;48.526;9.044;2023-01-01T17:12:25;12.10;75.37
69084;SHT31;56185;48.526;9.044;2023-01-01T17:14:50;11.98;75.32
69084;SHT31;56185;48.526;9.044;2023-01-01T17:17:15;11.92;75.72
69084;SHT31;56185;48.526;9.044;2023-01-01T17:19:41;11.86;75.56
69084;SHT31;56185;48.526;9.044;2023-01-01T17:22:06;11.65;76.72